Airfield :
LOGIN :

Register | Disclaimer

   EN    FR    IT 

 










Legend :    VFR   Marginal VFR   IFR   Intensive IFR   Very Intensive IFR
Visi :
Ceiling :
>= 8 km
>= 3000ft
5 to 8 km
1000 to 3000 ft
1500m to 5 km
500 to 1000 ft
800 to 1500m
200 to 500 ft
< 800m
< 200 ft
Symbols :   Thunderstorms  Fog  Heavy snow  Heavy precipitations  Wind > 20 kt
SIGMETs :     Misc.  Thunderstorms  Icing  Turbulence  Mountain Waves  Volcanic Ashes







- Airport Elevation : 499 ft
- IATA code : TLS
- Download approach charts


LFBO - Toulouse / Blagnac

CURRENT METAR :
  • 180800Z AUTO 14010KT 110V180 CAVOK 23/12 Q1012 NOSIG

EXPIRED METARs :
  • 180730Z AUTO 15009KT CAVOK 22/12 Q1012 NOSIG
  • 180700Z AUTO 13011KT CAVOK 21/12 Q1012 NOSIG
  • 180630Z AUTO 13012KT CAVOK 21/11 Q1012 NOSIG
  • 180600Z AUTO 15012KT CAVOK 21/11 Q1012 NOSIG
  • 180530Z AUTO 14012KT 9999 3600 NSC 21/10 Q1012 NOSIG

TAF TAF LFBO
Valid from the 18 at 06:00 until the 19 at 12:00 UTC


180500Z 1806/1912 14010KT CAVOK
BECMG 1823/1901 26010KT
TEMPO 1901/1907 BKN010
BECMG 1907/1909 VRB02KT
ATIS : +33 5 62 74 66 36
No reported NOTAMs for that airfield.



MET'MAP, your aeronautical weather chart ! - Copyright ORBIFLY December 2007 - Disclaimer

ORBIFLY MET'MAP TEAM :

Programming & Development : Alexandra Zaïnal
Concept & Development : Baudouin d'Aumeries
Co-Development & Prog : Marc-Olivier Méhu
Technical & hardware support : Manuel Goepfert

Contact : metmap@orbifly.com




SOURCES & CREDITS :

   NOAA